createdAt,value
2019-04-10T00:01:09.645Z,6.99
2019-04-10T00:03:41.713Z,6.93
2019-04-10T00:06:08.790Z,6.96
2019-04-10T00:08:38.629Z,6.90
2019-04-10T00:11:08.186Z,6.93
2019-04-10T00:13:36.750Z,6.81
2019-04-10T00:16:05.626Z,6.76
2019-04-10T00:18:34.158Z,6.81
2019-04-10T00:21:02.948Z,6.85
2019-04-10T00:23:31.553Z,6.85
2019-04-10T00:26:00.126Z,6.87
2019-04-10T00:28:29.592Z,6.91
2019-04-10T00:30:58.141Z,6.88
2019-04-10T00:33:27.087Z,6.90
2019-04-10T00:35:56.795Z,6.87
2019-04-10T00:38:26.098Z,6.85
2019-04-10T00:40:55.446Z,6.83
2019-04-10T00:43:24.636Z,6.83
2019-04-10T00:45:53.604Z,6.81
2019-04-10T00:48:22.379Z,6.72
2019-04-10T00:50:51.015Z,6.70
2019-04-10T00:53:19.494Z,6.75
2019-04-10T00:55:48.195Z,6.71
2019-04-10T00:58:16.673Z,6.68
2019-04-10T01:00:45.452Z,6.73
2019-04-10T01:03:16.244Z,6.70
2019-04-10T01:05:44.687Z,6.66
2019-04-10T01:08:13.521Z,6.63
2019-04-10T01:10:42.204Z,6.60
2019-04-10T01:13:10.751Z,6.61
2019-04-10T01:15:39.264Z,6.56
2019-04-10T01:18:07.768Z,6.46
2019-04-10T01:20:36.198Z,6.39
2019-04-10T01:23:05.767Z,6.37
2019-04-10T01:25:34.649Z,6.39
2019-04-10T01:28:04.658Z,6.43
2019-04-10T01:30:33.350Z,6.40
2019-04-10T01:33:01.801Z,6.34
2019-04-10T01:35:30.262Z,6.37
2019-04-10T01:38:01.405Z,6.29
2019-04-10T01:40:28.979Z,6.32
2019-04-10T01:43:09.282Z,6.28
2019-04-10T01:45:27.703Z,6.26
2019-04-10T01:47:56.154Z,6.30
2019-04-10T01:50:24.628Z,6.28
2019-04-10T01:52:53.435Z,6.21
2019-04-10T01:55:25.677Z,6.21
2019-04-10T01:57:52.877Z,6.19
2019-04-10T02:00:23.669Z,6.24
2019-04-10T02:02:53.966Z,6.25
2019-04-10T02:05:22.776Z,6.19
2019-04-10T02:08:02.179Z,6.26
2019-04-10T02:10:21.888Z,6.16
2019-04-10T02:12:50.909Z,6.13
2019-04-10T02:15:19.798Z,6.13
2019-04-10T02:17:48.704Z,6.13
2019-04-10T02:20:18.952Z,6.09
2019-04-10T02:22:47.975Z,6.05
2019-04-10T02:25:17.846Z,6.07
2019-04-10T02:27:46.775Z,5.96
2019-04-10T02:30:17.508Z,6.00
2019-04-10T02:32:48.236Z,5.91
2019-04-10T02:35:17.669Z,5.82
2019-04-10T02:37:49.535Z,5.79
2019-04-10T02:40:16.998Z,5.78
2019-04-10T02:42:47.340Z,5.80
2019-04-10T02:45:17.106Z,5.75
2019-04-10T02:47:47.428Z,5.70
2019-04-10T02:50:16.558Z,5.70
2019-04-10T02:52:45.941Z,5.69
2019-04-10T02:55:16.822Z,5.71
2019-04-10T02:57:45.907Z,5.72
2019-04-10T03:00:15.380Z,5.71
2019-04-10T03:02:45.295Z,5.77
2019-04-10T03:05:15.871Z,5.74
2019-04-10T03:07:44.484Z,5.73
2019-04-10T03:10:24.596Z,5.75
2019-04-10T03:12:44.297Z,5.76
2019-04-10T03:15:15.043Z,5.68
2019-04-10T03:17:44.069Z,5.74
2019-04-10T03:20:12.759Z,5.71
2019-04-10T03:22:41.137Z,5.75
2019-04-10T03:25:10.928Z,5.78
2019-04-10T03:27:40.583Z,5.74
2019-04-10T03:30:12.593Z,5.73
2019-04-10T03:32:47.693Z,5.81
2019-04-10T03:35:22.876Z,5.82
2019-04-10T03:37:52.963Z,5.83
2019-04-10T03:40:21.742Z,5.83
2019-04-10T03:42:50.538Z,5.86
2019-04-10T03:45:20.284Z,5.88
2019-04-10T03:47:49.429Z,5.92
2019-04-10T03:50:18.456Z,5.89
2019-04-10T03:52:49.709Z,5.85
2019-04-10T03:55:18.941Z,5.81
2019-04-10T03:57:51.949Z,5.79
2019-04-10T04:00:22.381Z,5.71
2019-04-10T04:02:51.844Z,5.71
2019-04-10T04:05:20.454Z,5.70
2019-04-10T04:07:48.938Z,5.75
2019-04-10T04:10:18.286Z,5.74
2019-04-10T04:12:46.986Z,5.74
2019-04-10T04:15:15.731Z,5.70
2019-04-10T04:17:44.454Z,5.68
2019-04-10T04:20:12.915Z,5.72
2019-04-10T04:22:41.381Z,5.74
2019-04-10T04:25:10.776Z,5.70
2019-04-10T04:27:39.853Z,5.69
2019-04-10T04:30:08.905Z,5.67
2019-04-10T04:32:38.008Z,5.67
2019-04-10T04:35:07.053Z,5.72
2019-04-10T04:37:35.851Z,5.73
2019-04-10T04:40:05.833Z,5.77
2019-04-10T04:42:35.163Z,5.78
2019-04-10T04:45:05.071Z,5.74
2019-04-10T04:47:34.312Z,5.69
2019-04-10T04:50:03.564Z,5.72
2019-04-10T04:52:32.757Z,5.66
2019-04-10T04:55:01.949Z,5.69
2019-04-10T04:57:31.217Z,5.69
2019-04-10T05:00:01.239Z,5.69
2019-04-10T05:02:30.314Z,5.69
2019-04-10T05:04:58.833Z,5.70
2019-04-10T05:07:27.559Z,5.73
2019-04-10T05:09:58.688Z,5.70
2019-04-10T05:12:27.607Z,5.71
2019-04-10T05:14:56.131Z,5.73
2019-04-10T05:17:24.739Z,5.80
2019-04-10T05:19:54.497Z,5.83
2019-04-10T05:22:23.178Z,5.85
2019-04-10T05:24:52.357Z,5.91
2019-04-10T05:27:21.029Z,5.93
2019-04-10T05:29:50.563Z,6.00
2019-04-10T05:32:19.021Z,6.02
2019-04-10T05:34:47.559Z,5.98
2019-04-10T05:37:16.065Z,6.02
2019-04-10T05:39:49.142Z,6.10
2019-04-10T05:42:14.798Z,6.10
2019-04-10T05:44:44.565Z,6.17
2019-04-10T05:47:13.711Z,6.21
2019-04-10T05:49:43.121Z,6.29
2019-04-10T05:52:12.664Z,6.31
2019-04-10T05:54:43.751Z,6.30
2019-04-10T05:57:12.598Z,6.39
2019-04-10T05:59:41.497Z,6.52
2019-04-10T06:02:09.902Z,6.55
2019-04-10T06:04:38.315Z,6.59
2019-04-10T06:07:06.780Z,6.54
2019-04-10T06:09:36.549Z,6.54
2019-04-10T06:12:05.766Z,6.59
2019-04-10T06:14:35.310Z,6.67
2019-04-10T06:17:04.376Z,6.60
2019-04-10T06:19:34.344Z,6.61
2019-04-10T06:22:03.261Z,6.71
2019-04-10T06:24:32.193Z,6.79
2019-04-10T06:27:01.766Z,6.82
2019-04-10T06:29:30.896Z,6.84
2019-04-10T06:31:59.514Z,6.80
2019-04-10T06:34:28.014Z,6.85
2019-04-10T06:36:57.638Z,6.92
2019-04-10T06:39:26.921Z,6.94
2019-04-10T06:41:56.138Z,7.14
2019-04-10T06:44:25.839Z,7.28
2019-04-10T06:46:55.184Z,7.26
2019-04-10T06:49:24.797Z,7.18
2019-04-10T06:51:53.613Z,7.01
2019-04-10T06:54:22.785Z,7.30
2019-04-10T06:56:52.420Z,7.35
2019-04-10T06:59:21.327Z,7.45
2019-04-10T07:01:53.383Z,7.53
2019-04-10T07:04:24.443Z,7.52
2019-04-10T07:06:59.738Z,7.45
2019-04-10T07:09:25.430Z,8.03
2019-04-10T07:11:58.517Z,8.53
2019-04-10T07:14:24.606Z,8.76
2019-04-10T07:16:54.776Z,9.04
2019-04-10T07:19:24.108Z,9.23
2019-04-10T07:21:53.471Z,9.31
2019-04-10T07:24:25.059Z,9.35
2019-04-10T07:26:53.695Z,9.38
2019-04-10T07:29:26.627Z,9.25
2019-04-10T07:31:52.952Z,9.40
2019-04-10T07:34:25.553Z,9.55
2019-04-10T07:36:52.041Z,9.47
2019-04-10T07:39:21.515Z,9.89
2019-04-10T07:41:50.200Z,9.82
2019-04-10T07:44:19.091Z,9.46
2019-04-10T07:46:48.747Z,9.28
2019-04-10T07:49:19.331Z,9.07
2019-04-10T07:51:50.181Z,8.95
2019-04-10T07:54:21.257Z,8.96
2019-04-10T07:56:49.493Z,8.88
2019-04-10T07:59:18.548Z,9.08
2019-04-10T08:01:47.419Z,9.29
2019-04-10T08:04:16.096Z,9.24
2019-04-10T08:06:44.741Z,9.27
2019-04-10T08:09:13.254Z,9.33
2019-04-10T08:11:42.518Z,9.50
2019-04-10T08:14:11.084Z,9.51
2019-04-10T08:16:39.566Z,9.59
2019-04-10T08:19:08.306Z,9.60
2019-04-10T08:21:38.026Z,9.84
2019-04-10T08:24:07.368Z,10.05
2019-04-10T08:26:36.739Z,10.18
2019-04-10T08:29:05.732Z,10.33
2019-04-10T08:31:34.331Z,10.22
2019-04-10T08:34:03.304Z,10.08
2019-04-10T08:36:32.287Z,10.13
2019-04-10T08:39:01.176Z,10.13
2019-04-10T08:41:29.775Z,10.03
2019-04-10T08:43:58.877Z,10.32
2019-04-10T08:46:28.131Z,10.77
2019-04-10T08:48:58.013Z,10.86
2019-04-10T08:51:27.707Z,11.01
2019-04-10T08:53:58.608Z,11.33
2019-04-10T08:56:28.022Z,11.51
2019-04-10T08:58:57.238Z,11.93
2019-04-10T09:01:26.100Z,11.86
2019-04-10T09:03:55.239Z,11.71
2019-04-10T09:06:23.899Z,11.93
2019-04-10T09:08:53.074Z,12.44
2019-04-10T09:11:26.494Z,13.37
2019-04-10T09:14:16.998Z,13.87
2019-04-10T09:16:44.821Z,13.74
2019-04-10T09:19:16.128Z,14.79
2019-04-10T09:21:45.748Z,15.21
2019-04-10T09:24:15.312Z,14.59
2019-04-10T09:26:46.806Z,15.05
2019-04-10T09:29:16.084Z,15.77
2019-04-10T09:31:46.036Z,15.09
2019-04-10T09:34:18.263Z,14.85
2019-04-10T09:36:46.723Z,15.26
2019-04-10T09:39:19.068Z,15.08
2019-04-10T09:41:47.706Z,14.47
2019-04-10T09:44:16.268Z,14.39
2019-04-10T09:46:45.111Z,15.22
2019-04-10T09:49:14.388Z,15.34
2019-04-10T09:51:42.868Z,15.59
2019-04-10T09:54:11.261Z,15.90
2019-04-10T09:56:39.672Z,16.26
2019-04-10T09:59:08.200Z,16.41
2019-04-10T10:01:37.862Z,16.56
2019-04-10T10:04:06.928Z,16.55
2019-04-10T10:06:37.795Z,16.51
2019-04-10T10:09:08.375Z,16.14
2019-04-10T10:11:37.171Z,15.80
2019-04-10T10:14:06.165Z,15.07
2019-04-10T10:16:35.782Z,14.68
2019-04-10T10:19:05.699Z,14.81
2019-04-10T10:21:34.637Z,15.37
2019-04-10T10:24:04.501Z,15.40
2019-04-10T10:26:34.309Z,15.98
2019-04-10T10:29:03.039Z,16.24
2019-04-10T10:31:32.490Z,16.34
2019-04-10T10:34:01.905Z,17.08
2019-04-10T10:36:40.787Z,17.46
2019-04-10T10:39:06.914Z,18.40
2019-04-10T10:41:31.963Z,18.87
2019-04-10T10:44:00.630Z,18.63
2019-04-10T10:46:29.338Z,16.93
2019-04-10T10:48:57.973Z,15.91
2019-04-10T10:51:26.777Z,15.52
2019-04-10T10:53:56.599Z,15.27
2019-04-10T10:56:25.181Z,15.14
2019-04-10T10:58:55.328Z,15.62
2019-04-10T11:01:24.139Z,15.12
2019-04-10T11:03:52.611Z,14.56
2019-04-10T11:06:21.112Z,14.12
2019-04-10T11:08:49.495Z,13.68
2019-04-10T11:11:17.972Z,13.49
2019-04-10T11:13:46.948Z,13.30
2019-04-10T11:16:16.833Z,13.06
2019-04-10T11:18:46.837Z,12.83
2019-04-10T11:21:16.833Z,12.39
2019-04-10T11:23:46.613Z,12.24
2019-04-10T11:26:20.031Z,12.55
2019-04-10T11:28:45.659Z,12.84
2019-04-10T11:31:15.804Z,12.73
2019-04-10T11:33:49.824Z,12.53
2019-04-10T11:36:15.130Z,12.35
2019-04-10T11:38:45.361Z,12.49
2019-04-10T11:41:15.001Z,12.86
2019-04-10T11:43:44.619Z,14.84
2019-04-10T11:46:13.777Z,15.66
2019-04-10T11:48:45.541Z,15.91
2019-04-10T11:51:14.146Z,15.79
2019-04-10T11:53:47.215Z,17.10
2019-04-10T11:56:13.099Z,18.88
2019-04-10T11:58:50.690Z,20.42
2019-04-10T12:01:13.031Z,22.02
2019-04-10T12:03:48.248Z,22.34
2019-04-10T12:06:13.659Z,22.59
2019-04-10T12:09:03.823Z,23.01
2019-04-10T12:11:15.531Z,23.07
2019-04-10T12:13:42.777Z,24.25
2019-04-10T12:16:11.340Z,25.18
2019-04-10T12:18:40.558Z,22.79
2019-04-10T12:21:09.419Z,20.56
2019-04-10T12:23:37.905Z,20.77
2019-04-10T12:26:07.447Z,21.92
2019-04-10T12:28:36.181Z,20.98
2019-04-10T12:31:05.906Z,18.87
2019-04-10T12:33:35.817Z,17.16
2019-04-10T12:36:06.594Z,17.82
2019-04-10T12:38:35.999Z,21.22
2019-04-10T12:41:04.730Z,22.61
2019-04-10T12:43:33.166Z,23.93
2019-04-10T12:46:02.388Z,25.67
2019-04-10T12:48:30.920Z,24.79
2019-04-10T12:50:59.373Z,22.67
2019-04-10T12:53:27.823Z,19.78
2019-04-10T12:55:56.255Z,17.69
2019-04-10T12:58:25.101Z,17.81
2019-04-10T13:00:53.507Z,19.94
2019-04-10T13:03:23.691Z,20.75
2019-04-10T13:05:52.085Z,19.08
2019-04-10T13:08:25.637Z,17.61
2019-04-10T13:10:51.909Z,16.33
2019-04-10T13:13:20.678Z,15.51
2019-04-10T13:15:49.771Z,14.96
2019-04-10T13:18:18.903Z,14.27
2019-04-10T13:20:48.339Z,13.66
2019-04-10T13:23:17.821Z,13.55
2019-04-10T13:25:56.425Z,12.96
2019-04-10T13:28:17.015Z,13.02
2019-04-10T13:30:51.257Z,13.05
2019-04-10T13:33:16.270Z,13.43
2019-04-10T13:35:44.781Z,13.67
2019-04-10T13:38:23.119Z,13.80
2019-04-10T13:40:43.775Z,13.86
2019-04-10T13:43:12.324Z,13.69
2019-04-10T13:45:41.607Z,13.83
2019-04-10T13:48:10.528Z,14.14
2019-04-10T13:50:39.058Z,14.72
2019-04-10T13:53:07.945Z,14.95
2019-04-10T13:55:36.754Z,15.29
2019-04-10T13:58:05.326Z,15.25
2019-04-10T14:00:38.414Z,15.33
2019-04-10T14:03:06.218Z,14.22
2019-04-10T14:05:34.893Z,13.67
2019-04-10T14:08:03.413Z,13.40
2019-04-10T14:10:31.865Z,13.13
2019-04-10T14:13:00.502Z,13.06
2019-04-10T14:15:30.338Z,12.99
2019-04-10T14:17:59.821Z,12.86
2019-04-10T14:20:29.030Z,12.78
2019-04-10T14:23:02.229Z,12.74
2019-04-10T14:25:32.417Z,12.94
2019-04-10T14:28:00.997Z,13.53
2019-04-10T14:30:31.415Z,13.97
2019-04-10T14:33:00.863Z,13.64
2019-04-10T14:35:29.533Z,13.06
2019-04-10T14:38:01.026Z,13.06
2019-04-10T14:40:30.493Z,13.51
2019-04-10T14:42:59.720Z,13.35
2019-04-10T14:45:28.364Z,12.96
2019-04-10T14:47:58.187Z,12.52
2019-04-10T14:50:26.776Z,12.47
2019-04-10T14:52:55.323Z,12.26
2019-04-10T14:55:24.927Z,12.27
2019-04-10T14:57:54.915Z,12.30
2019-04-10T15:00:25.155Z,12.47
2019-04-10T15:02:54.118Z,12.13
2019-04-10T15:05:23.758Z,12.07
2019-04-10T15:07:55.276Z,12.34
2019-04-10T15:10:29.905Z,12.60
2019-04-10T15:13:07.469Z,12.83
2019-04-10T15:15:28.609Z,13.13
2019-04-10T15:17:58.141Z,13.62
2019-04-10T15:20:26.661Z,13.79
2019-04-10T15:22:55.199Z,13.39
2019-04-10T15:25:24.824Z,12.80
2019-04-10T15:27:53.704Z,12.54
2019-04-10T15:30:22.356Z,12.22
2019-04-10T15:32:50.839Z,11.89
2019-04-10T15:35:20.093Z,11.99
2019-04-10T15:37:49.315Z,11.75
2019-04-10T15:40:25.494Z,11.63
2019-04-10T15:42:52.562Z,11.44
2019-04-10T15:45:21.764Z,11.37
2019-04-10T15:47:54.171Z,11.35
2019-04-10T15:50:20.575Z,11.31
2019-04-10T15:52:49.020Z,11.14
2019-04-10T15:55:21.641Z,11.04
2019-04-10T15:57:55.256Z,10.99
2019-04-10T16:00:21.241Z,10.94
2019-04-10T16:02:51.022Z,10.95
2019-04-10T16:05:19.763Z,10.98
2019-04-10T16:07:48.962Z,10.85
2019-04-10T16:10:28.897Z,10.80
2019-04-10T16:13:02.203Z,10.75
2019-04-10T16:15:32.238Z,10.56
2019-04-10T16:18:11.491Z,10.53
2019-04-10T16:20:41.060Z,10.46
2019-04-10T16:23:14.297Z,10.37
2019-04-10T16:25:52.398Z,10.28
2019-04-10T16:28:21.149Z,10.18
2019-04-10T16:30:50.758Z,10.13
2019-04-10T16:33:19.392Z,10.22
2019-04-10T16:35:48.281Z,10.15
2019-04-10T16:38:16.856Z,10.21
2019-04-10T16:40:45.920Z,10.20
2019-04-10T16:43:15.909Z,10.17
2019-04-10T16:45:44.732Z,10.13
2019-04-10T16:48:13.252Z,10.13
2019-04-10T16:50:43.568Z,10.26
2019-04-10T16:53:14.326Z,10.31
2019-04-10T16:55:43.111Z,10.25
2019-04-10T16:58:13.966Z,10.24
2019-04-10T17:00:42.515Z,10.17
2019-04-10T17:03:11.606Z,10.11
2019-04-10T17:05:40.440Z,10.05
2019-04-10T17:08:09.779Z,10.06
2019-04-10T17:10:40.743Z,10.04
2019-04-10T17:13:09.325Z,9.85
2019-04-10T17:15:39.863Z,9.86
2019-04-10T17:18:08.770Z,9.80
2019-04-10T17:20:38.338Z,9.87
2019-04-10T17:23:08.115Z,9.85
2019-04-10T17:25:42.241Z,9.73
2019-04-10T17:28:12.313Z,9.79
2019-04-10T17:30:42.235Z,9.82
2019-04-10T17:33:11.150Z,9.78
2019-04-10T17:35:40.097Z,9.70
2019-04-10T17:38:10.153Z,9.64
2019-04-10T17:40:46.337Z,9.62
2019-04-10T17:43:08.919Z,9.51
2019-04-10T17:45:38.607Z,9.46
2019-04-10T17:48:07.273Z,9.44
2019-04-10T17:50:37.436Z,9.48
2019-04-10T17:53:07.139Z,9.38
2019-04-10T17:55:36.194Z,9.25
2019-04-10T17:58:05.375Z,9.23
2019-04-10T18:00:35.646Z,9.18
2019-04-10T18:03:05.324Z,9.22
2019-04-10T18:05:34.974Z,9.26
2019-04-10T18:08:03.585Z,9.25
2019-04-10T18:10:43.472Z,9.26
2019-04-10T18:13:03.038Z,9.30
2019-04-10T18:15:32.425Z,9.28
2019-04-10T18:18:03.261Z,9.26
2019-04-10T18:20:32.123Z,9.16
2019-04-10T18:23:01.016Z,9.18
2019-04-10T18:25:29.806Z,9.19
2019-04-10T18:27:58.528Z,9.08
2019-04-10T18:30:28.177Z,9.08
2019-04-10T18:32:58.135Z,9.09
2019-04-10T18:35:26.896Z,9.04
2019-04-10T18:37:55.587Z,8.99
2019-04-10T18:40:25.293Z,8.94
2019-04-10T18:42:56.142Z,8.86
2019-04-10T18:45:24.550Z,8.90
2019-04-10T18:47:54.085Z,8.89
2019-04-10T18:50:24.485Z,8.86
2019-04-10T18:52:53.912Z,8.83
2019-04-10T18:55:22.813Z,8.82
2019-04-10T18:57:51.488Z,8.70
2019-04-10T19:00:38.724Z,8.75
2019-04-10T19:03:25.572Z,8.74
2019-04-10T19:05:56.344Z,8.74
2019-04-10T19:08:26.027Z,8.64
2019-04-10T19:11:08.398Z,8.58
2019-04-10T19:13:26.617Z,8.53
2019-04-10T19:15:55.445Z,8.59
2019-04-10T19:18:24.065Z,8.59
2019-04-10T19:20:53.187Z,8.59
2019-04-10T19:23:22.736Z,8.51
2019-04-10T19:25:52.311Z,8.49
2019-04-10T19:28:32.258Z,8.45
2019-04-10T19:31:08.072Z,8.45
2019-04-10T19:33:26.365Z,8.41
2019-04-10T19:35:55.226Z,8.39
2019-04-10T19:38:23.645Z,8.39
2019-04-10T19:40:52.235Z,8.38
2019-04-10T19:43:22.074Z,8.36
2019-04-10T19:45:50.544Z,8.40
2019-04-10T19:48:19.403Z,8.39
2019-04-10T19:50:52.260Z,8.36
2019-04-10T19:53:24.803Z,8.37
2019-04-10T19:55:53.867Z,8.34
2019-04-10T19:58:22.523Z,8.35
2019-04-10T20:00:51.092Z,8.31
2019-04-10T20:03:19.730Z,8.29
2019-04-10T20:05:49.345Z,8.25
2019-04-10T20:08:18.068Z,8.17
2019-04-10T20:10:47.650Z,8.09
2019-04-10T20:13:16.615Z,8.09
2019-04-10T20:15:45.261Z,8.09
2019-04-10T20:18:14.685Z,8.08
2019-04-10T20:20:43.683Z,8.11
2019-04-10T20:23:13.922Z,8.08
2019-04-10T20:25:42.938Z,8.03
2019-04-10T20:28:12.276Z,8.05
2019-04-10T20:30:40.900Z,8.05
2019-04-10T20:33:10.421Z,7.99
2019-04-10T20:35:38.978Z,7.96
2019-04-10T20:38:21.581Z,7.91
2019-04-10T20:40:49.837Z,7.88
2019-04-10T20:43:18.598Z,7.92
2019-04-10T20:45:53.815Z,7.84
2019-04-10T20:48:22.714Z,7.85
2019-04-10T20:50:52.301Z,7.82
2019-04-10T20:53:22.105Z,7.79
2019-04-10T20:55:51.356Z,7.73
2019-04-10T20:58:21.993Z,7.71
2019-04-10T21:00:51.422Z,7.69
2019-04-10T21:03:19.943Z,7.62
2019-04-10T21:05:48.631Z,7.60
2019-04-10T21:08:17.973Z,7.55
2019-04-10T21:10:49.457Z,7.59
2019-04-10T21:13:17.799Z,7.59
2019-04-10T21:15:46.352Z,7.53
2019-04-10T21:18:15.323Z,7.54
2019-04-10T21:20:45.218Z,7.57
2019-04-10T21:23:13.730Z,7.48
2019-04-10T21:25:42.241Z,7.44
2019-04-10T21:28:11.660Z,7.34
2019-04-10T21:30:46.474Z,7.30
2019-04-10T21:33:20.422Z,7.24
2019-04-10T21:35:49.740Z,7.23
2019-04-10T21:38:19.307Z,7.18
2019-04-10T21:40:48.029Z,7.18
2019-04-10T21:43:16.586Z,7.08
2019-04-10T21:45:45.587Z,7.05
2019-04-10T21:48:14.664Z,7.13
2019-04-10T21:50:43.971Z,7.07
2019-04-10T21:53:12.544Z,7.15
2019-04-10T21:55:41.716Z,7.10
2019-04-10T21:58:10.357Z,7.11
2019-04-10T22:00:57.243Z,7.08
2019-04-10T22:03:27.558Z,7.05
2019-04-10T22:05:58.141Z,7.07
2019-04-10T22:08:33.656Z,7.15
2019-04-10T22:11:04.338Z,7.20
2019-04-10T22:13:33.177Z,7.18
2019-04-10T22:16:06.012Z,7.21
2019-04-10T22:18:34.660Z,7.19
2019-04-10T22:21:16.975Z,7.23
2019-04-10T22:23:51.067Z,7.28
2019-04-10T22:26:22.247Z,7.21
2019-04-10T22:28:50.800Z,7.20
2019-04-10T22:31:27.861Z,7.23
2019-04-10T22:33:56.774Z,7.24
2019-04-10T22:36:25.978Z,7.25
2019-04-10T22:38:54.497Z,7.22
2019-04-10T22:41:30.277Z,7.28
2019-04-10T22:43:54.894Z,7.26
2019-04-10T22:46:23.818Z,7.26
2019-04-10T22:48:53.453Z,7.36
2019-04-10T22:51:22.387Z,7.34
2019-04-10T22:53:53.672Z,7.33
2019-04-10T22:56:23.181Z,7.23
2019-04-10T22:58:51.816Z,7.23
2019-04-10T23:01:20.728Z,7.19
2019-04-10T23:03:49.486Z,7.26
2019-04-10T23:06:18.254Z,7.22
2019-04-10T23:08:47.484Z,7.19
2019-04-10T23:11:17.140Z,7.15
2019-04-10T23:13:47.979Z,7.14
2019-04-10T23:16:17.483Z,7.13
2019-04-10T23:18:46.064Z,7.06
2019-04-10T23:21:14.560Z,7.04
2019-04-10T23:23:43.324Z,7.06
2019-04-10T23:26:13.119Z,7.09
2019-04-10T23:28:42.122Z,7.09
2019-04-10T23:31:10.753Z,7.09
2019-04-10T23:33:39.916Z,6.99
2019-04-10T23:36:09.697Z,6.96
2019-04-10T23:38:39.597Z,6.92
2019-04-10T23:41:09.390Z,6.81
2019-04-10T23:43:37.943Z,6.77
2019-04-10T23:46:06.351Z,6.68
2019-04-10T23:48:34.998Z,6.67
2019-04-10T23:51:04.859Z,6.62
2019-04-10T23:53:33.563Z,6.63
2019-04-10T23:56:02.209Z,6.62
2019-04-10T23:58:31.799Z,6.60
